Time;durP1;ratioP1;P1;durP2;ratioP2;P2;SDS_P1;SDS_P2;PMS_P1;PMS_P2;Temp;Humidity;BMP_temperature;BMP_pressure;BME280_temperature;BME280_humidity;BME280_pressure;Samples;Min_cycle;Max_cycle;Signal;HPM_P1;HPM_P2
2022/10/01 00:00:51;;;;;;;;;0.67;0.67;;;;;16.31;77.23;32679.78;4978577;28;47097;-79
2022/10/01 00:03:17;;;;;;;;;0.00;0.00;;;;;16.32;77.27;32908.09;4999561;27;45410;-79
2022/10/01 00:05:43;;;;;;;;;1.33;1.33;;;;;16.33;76.74;32829.06;4996214;27;45432;-79
2022/10/01 00:08:09;;;;;;;;;2.00;1.00;;;;;16.27;77.26;32405.38;4995883;27;45513;-78
2022/10/01 00:10:35;;;;;;;;;0.67;0.67;;;;;16.39;76.71;32779.72;4995924;27;45477;-78
2022/10/01 00:13:01;;;;;;;;;1.00;1.00;;;;;16.34;76.50;32678.91;4995064;27;45504;-79
2022/10/01 00:15:26;;;;;;;;;1.67;1.67;;;;;16.37;77.11;32416.53;4996228;27;45650;-78
2022/10/01 00:17:52;;;;;;;;;0.33;0.33;;;;;16.38;77.03;32517.63;4996468;27;45341;-79
2022/10/01 00:20:17;;;;;;;;;1.00;1.00;;;;;16.53;77.37;32385.97;5045038;27;46355;-78
2022/10/01 00:22:43;;;;;;;;;1.33;1.33;;;;;16.53;77.21;32557.56;4995472;27;45662;-79
2022/10/01 00:25:08;;;;;;;;;0.33;0.33;;;;;16.50;76.41;32778.28;4995253;27;45481;-79
2022/10/01 00:27:34;;;;;;;;;1.00;1.00;;;;;16.60;76.80;32895.31;4996173;27;45947;-78
2022/10/01 00:30:02;;;;;;;;;1.00;1.00;;;;;16.65;76.67;32998.84;4995191;27;46379;-79
2022/10/01 00:32:31;;;;;;;;;0.33;0.33;;;;;16.58;76.63;32843.88;4995773;27;45291;-79
2022/10/01 00:34:56;;;;;;;;;0.67;0.67;;;;;16.63;76.49;32706.63;4996226;27;45365;-78
2022/10/01 00:37:22;;;;;;;;;1.00;1.00;;;;;16.53;77.00;32626.34;4998142;27;45360;-78
2022/10/01 00:39:47;;;;;;;;;1.33;1.00;;;;;16.60;77.34;32178.44;4995246;27;47222;-79
2022/10/01 00:42:21;;;;;;;;;4.00;1.00;;;;;16.63;77.32;32238.38;4987021;28;45586;-78
2022/10/01 00:44:48;;;;;;;;;0.00;0.00;;;;;16.65;78.05;32025.00;4999107;27;45496;-78
2022/10/01 00:47:39;;;;;;;;;0.00;0.00;;;;;16.60;77.91;32046.19;4995284;27;45481;-78
2022/10/01 00:50:33;;;;;;;;;2.00;1.00;;;;;16.59;78.02;31751.75;4995511;27;46224;-74
2022/10/01 00:53:03;;;;;;;;;1.00;1.00;;;;;16.55;78.15;31511.44;4999054;27;45544;-75
2022/10/01 00:55:35;;;;;;;;;1.00;1.00;;;;;16.51;77.78;31525.31;4984092;28;45395;-75
2022/10/01 00:58:02;;;;;;;;;1.00;1.00;;;;;16.40;78.63;30826.69;4994023;27;45489;-74
2022/10/01 01:00:28;;;;;;;;;1.00;1.00;;;;;16.50;79.87;29597.56;4977174;28;49270;-75
2022/10/01 01:02:53;;;;;;;;;2.00;1.00;;;;;16.57;80.38;29548.47;4995384;27;45416;-76
2022/10/01 01:05:19;;;;;;;;;0.00;0.00;;;;;16.55;80.07;29465.47;4994985;27;45568;-75
2022/10/01 01:07:48;;;;;;;;;1.00;0.00;;;;;16.57;81.05;28372.19;4995708;27;45520;-75
2022/10/01 01:10:17;;;;;;;;;0.00;0.00;;;;;16.54;80.82;28185.69;5026935;27;45757;-75
2022/10/01 01:12:57;;;;;;;;;0.00;0.00;;;;;16.53;81.39;27561.94;4988466;28;45315;-75
2022/10/01 01:15:49;;;;;;;;;1.00;1.00;;;;;16.55;81.51;27037.03;4982987;27;45492;-75
2022/10/01 01:18:22;;;;;;;;;0.33;0.33;;;;;16.56;81.61;26437.97;4995736;27;45442;-75
2022/10/01 01:21:00;;;;;;;;;1.33;0.00;;;;;16.53;81.55;26082.88;4994721;27;45478;-75
2022/10/01 01:23:41;;;;;;;;;0.67;0.67;;;;;16.46;81.49;25881.72;4991027;27;45817;-75
2022/10/01 01:26:23;;;;;;;;;0.67;0.67;;;;;16.51;81.92;24991.50;4990611;27;45349;-75
2022/10/01 01:28:54;;;;;;;;;0.33;0.33;;;;;16.38;82.14;24402.47;4991020;27;45609;-75
2022/10/01 01:31:32;;;;;;;;;1.33;1.00;;;;;16.50;82.34;23254.22;4983818;28;45404;-76
2022/10/01 01:34:00;;;;;;;;;0.00;0.00;;;;;16.50;82.90;22433.91;4993254;27;46075;-74
2022/10/01 01:36:31;;;;;;;;;1.00;1.00;;;;;16.53;82.54;22369.22;4995097;27;45343;-75
2022/10/01 01:39:03;;;;;;;;;0.00;0.00;;;;;16.41;82.17;21945.03;4993267;27;45450;-74
2022/10/01 01:41:33;;;;;;;;;0.00;0.00;;;;;16.58;82.80;21371.50;5009444;28;46946;-76
2022/10/01 01:44:07;;;;;;;;;0.00;0.00;;;;;16.62;82.62;21457.53;4985190;27;45474;-75
2022/10/01 01:46:37;;;;;;;;;0.00;0.00;;;;;16.64;82.34;21355.47;5006594;27;45419;-75
2022/10/01 01:49:04;;;;;;;;;0.33;0.33;;;;;16.62;82.46;20742.72;4995788;27;45403;-74
2022/10/01 01:51:49;;;;;;;;;0.00;0.00;;;;;16.63;82.48;20595.41;5001174;27;45475;-74
2022/10/01 01:54:15;;;;;;;;;0.00;0.00;;;;;16.61;82.68;20233.34;4983536;27;45812;-74
2022/10/01 01:56:40;;;;;;;;;0.00;0.00;;;;;16.63;83.11;19770.00;4994326;27;45493;-77
2022/10/01 01:59:07;;;;;;;;;1.00;0.00;;;;;16.64;83.17;18815.94;4996678;27;45580;-74
2022/10/01 02:01:38;;;;;;;;;1.33;0.00;;;;;16.71;83.36;18433.22;4999066;27;46312;-74
2022/10/01 02:04:14;;;;;;;;;0.00;0.00;;;;;16.70;82.81;18812.66;4996836;27;45395;-74
2022/10/01 02:07:26;;;;;;;;;0.00;0.00;;;;;16.72;82.67;18486.31;4990544;28;45885;-76
2022/10/01 02:10:29;;;;;;;;;0.00;0.00;;;;;16.76;82.52;18469.44;4999759;27;45437;-74
2022/10/01 02:13:12;;;;;;;;;0.00;0.00;;;;;16.79;82.48;18354.50;5001284;27;46102;-74
2022/10/01 02:15:47;;;;;;;;;0.00;0.00;;;;;16.74;82.79;18030.94;5003424;27;45337;-74
2022/10/01 02:18:40;;;;;;;;;0.00;0.00;;;;;16.86;82.11;18151.16;4998289;27;45497;-75
2022/10/01 02:21:13;;;;;;;;;0.00;0.00;;;;;16.84;82.67;17784.16;4997030;27;45393;-74
2022/10/01 02:23:57;;;;;;;;;0.00;0.00;;;;;16.88;82.49;17495.34;4987742;28;47256;-75
2022/10/01 02:26:24;;;;;;;;;1.00;0.00;;;;;16.94;82.55;17713.59;4996953;27;45415;-74
2022/10/01 02:28:54;;;;;;;;;0.00;0.00;;;;;16.92;82.94;17106.38;5004472;27;45493;-75
2022/10/01 02:31:22;;;;;;;;;0.33;0.00;;;;;16.99;82.64;17448.81;4989642;27;45486;-74
2022/10/01 02:33:52;;;;;;;;;0.00;0.00;;;;;17.01;82.50;17689.63;4994204;27;45547;-75
2022/10/01 02:36:19;;;;;;;;;0.00;0.00;;;;;17.04;82.78;17005.06;5004348;27;45457;-75
2022/10/01 02:38:49;;;;;;;;;0.00;0.00;;;;;17.03;82.75;16878.00;4988803;27;45763;-77
2022/10/01 02:41:22;;;;;;;;;0.00;0.00;;;;;17.07;82.62;17180.09;4982418;27;45598;-74
2022/10/01 02:44:12;;;;;;;;;0.00;0.00;;;;;17.09;82.35;17072.66;4990631;28;46904;-75
2022/10/01 02:46:51;;;;;;;;;1.00;0.00;;;;;17.12;82.62;17068.03;4985979;27;46225;-74
2022/10/01 02:49:17;;;;;;;;;0.00;0.00;;;;;17.05;82.22;17094.88;4993236;28;45397;-75
2022/10/01 02:51:55;;;;;;;;;0.00;0.00;;;;;17.09;82.36;16843.06;4998235;27;45290;-75
2022/10/01 02:54:29;;;;;;;;;0.00;0.00;;;;;17.17;82.29;17030.16;4994075;27;45376;-75
2022/10/01 02:59:41;;;;;;;;;0.00;0.00;;;;;17.16;82.52;17357.00;4993404;27;45533;-75
2022/10/01 03:02:06;;;;;;;;;0.00;0.00;;;;;17.16;82.70;16552.69;4990604;28;45348;-75
2022/10/01 03:04:32;;;;;;;;;0.00;0.00;;;;;17.29;82.28;17326.94;4990371;27;45996;-75
2022/10/01 03:07:02;;;;;;;;;1.00;0.00;;;;;17.34;82.40;17109.66;4993747;27;45505;-76
2022/10/01 03:09:30;;;;;;;;;0.00;0.00;;;;;17.24;81.87;17660.44;5036783;27;45568;-75
2022/10/01 03:11:56;;;;;;;;;0.00;0.00;;;;;17.32;81.99;17523.19;4983120;28;45457;-75
2022/10/01 03:14:23;;;;;;;;;0.00;0.00;;;;;17.33;82.12;17407.28;4993826;28;45521;-75
2022/10/01 03:16:49;;;;;;;;;0.00;0.00;;;;;17.34;82.10;17201.84;4993033;27;45298;-75
2022/10/01 03:19:14;;;;;;;;;0.00;0.00;;;;;17.37;82.67;17100.13;4976270;28;45399;-75
2022/10/01 03:21:40;;;;;;;;;0.00;0.00;;;;;17.31;82.54;16475.63;5006028;27;45611;-75
2022/10/01 03:24:05;;;;;;;;;0.00;0.00;;;;;17.41;82.72;16141.22;4995070;27;45948;-74
2022/10/01 03:26:31;;;;;;;;;0.00;0.00;;;;;17.39;82.84;16093.13;5000335;27;45424;-74
2022/10/01 03:28:56;;;;;;;;;0.00;0.00;;;;;17.40;82.71;15856.06;4996793;27;45303;-74
2022/10/01 03:31:22;;;;;;;;;0.00;0.00;;;;;17.44;82.73;16023.50;4997368;27;45356;-74
2022/10/01 03:33:47;;;;;;;;;0.00;0.00;;;;;17.48;82.64;15916.59;4995927;27;46221;-75
2022/10/01 03:36:12;;;;;;;;;0.00;0.00;;;;;17.43;82.82;15666.94;5000812;27;45346;-75
2022/10/01 03:38:38;;;;;;;;;0.00;0.00;;;;;17.32;82.71;15555.44;4989900;27;45602;-75
2022/10/01 03:41:03;;;;;;;;;0.00;0.00;;;;;17.48;83.74;13474.78;4999997;27;45651;-75
2022/10/01 03:43:29;;;;;;;;;0.00;0.00;;;;;17.51;83.97;13161.75;5003090;27;45426;-75
2022/10/01 03:45:55;;;;;;;;;0.00;0.00;;;;;17.52;84.29;12302.75;4999252;27;45344;-74
2022/10/01 03:48:21;;;;;;;;;0.00;0.00;;;;;17.50;84.25;11804.19;5003733;27;45418;-74
2022/10/01 03:50:57;;;;;;;;;0.00;0.00;;;;;17.41;84.90;10685.13;4999478;27;45829;-74
2022/10/01 03:53:25;;;;;;;;;0.00;0.00;;;;;17.54;85.13;10084.63;4999412;27;45560;-74
2022/10/01 03:55:51;;;;;;;;;0.00;0.00;;;;;17.56;85.50;9840.09;4993708;27;45507;-76
2022/10/01 03:58:17;;;;;;;;;1.00;0.00;;;;;17.50;85.38;9696.81;4996401;27;45438;-74
2022/10/01 04:00:47;;;;;;;;;0.00;0.00;;;;;17.55;85.32;9176.31;4990268;27;45487;-74
2022/10/01 04:03:13;;;;;;;;;0.00;0.00;;;;;17.52;85.90;8259.38;5001679;27;45715;-74
2022/10/01 04:05:38;;;;;;;;;0.00;0.00;;;;;17.56;86.14;7783.63;4966017;28;45490;-74
2022/10/01 04:08:04;;;;;;;;;0.00;0.00;;;;;17.52;85.97;7372.25;4998326;28;45330;-75
2022/10/01 04:10:29;;;;;;;;;0.00;0.00;;;;;17.59;86.04;7083.84;4997524;27;45254;-74
2022/10/01 04:12:54;;;;;;;;;0.00;0.00;;;;;17.57;86.26;6465.06;5006575;27;45420;-75
2022/10/01 04:15:21;;;;;;;;;0.00;0.00;;;;;17.63;86.45;6613.44;4999193;27;45533;-75
2022/10/01 04:17:47;;;;;;;;;0.00;0.00;;;;;17.57;86.28;5707.13;5018785;27;45543;-73
2022/10/01 04:20:12;;;;;;;;;0.00;0.00;;;;;17.66;86.45;5332.16;4994585;27;45504;-74
2022/10/01 04:22:41;;;;;;;;;0.00;0.00;;;;;17.66;87.09;4263.97;4988326;27;46213;-75
2022/10/01 04:25:09;;;;;;;;;0.00;0.00;;;;;17.59;87.17;4194.78;5004146;27;45471;-75
2022/10/01 04:27:36;;;;;;;;;0.00;0.00;;;;;17.63;87.33;3400.91;5017757;27;45587;-75
2022/10/01 04:30:01;;;;;;;;;0.00;0.00;;;;;17.72;87.47;3107.38;5000718;27;45364;-74
2022/10/01 04:32:27;;;;;;;;;0.00;0.00;;;;;17.75;87.26;2578.94;5004722;27;46637;-75
2022/10/01 04:34:52;;;;;;;;;0.00;0.00;;;;;17.76;87.50;2297.66;5010810;27;45470;-75
2022/10/01 04:37:18;;;;;;;;;0.00;0.00;;;;;17.80;87.41;2313.81;5005321;27;45413;-75
2022/10/01 04:39:44;;;;;;;;;0.00;0.00;;;;;17.80;87.27;1735.31;4991488;27;45494;-75
2022/10/01 04:42:12;;;;;;;;;0.00;0.00;;;;;17.75;87.39;1322.13;5008485;27;45555;-75
2022/10/01 04:44:37;;;;;;;;;0.00;0.00;;;;;17.77;87.34;843.78;4995923;27;45401;-75
2022/10/01 04:47:03;;;;;;;;;0.00;0.00;;;;;17.68;87.34;506.81;4993746;27;45393;-75
2022/10/01 04:49:28;;;;;;;;;0.00;0.00;;;;;17.87;87.72;347.59;4996995;27;45502;-75
2022/10/01 04:51:54;;;;;;;;;0.00;0.00;;;;;17.88;87.56;492.28;4993896;27;46169;-74
2022/10/01 04:54:19;;;;;;;;;0.00;0.00;;;;;17.92;87.65;150.75;4994605;27;45330;-75
2022/10/01 04:56:45;;;;;;;;;0.00;0.00;;;;;17.92;88.06;-254.09;4996251;27;46149;-74
2022/10/01 04:59:10;;;;;;;;;0.00;0.00;;;;;17.86;87.97;-501.47;5002498;27;45293;-74
2022/10/01 05:01:35;;;;;;;;;0.00;0.00;;;;;18.04;88.05;-316.66;4994511;28;46002;-75
2022/10/01 05:04:00;;;;;;;;;0.00;0.00;;;;;18.07;87.54;188.38;5000483;27;45371;-75
2022/10/01 05:06:26;;;;;;;;;0.00;0.00;;;;;18.07;87.44;193.63;5007252;27;45624;-75
2022/10/01 05:08:51;;;;;;;;;0.00;0.00;;;;;18.03;87.30;548.38;4990187;27;45637;-75
2022/10/01 05:11:17;;;;;;;;;0.00;0.00;;;;;18.11;87.14;688.28;4985280;27;45744;-75
2022/10/01 05:13:43;;;;;;;;;0.00;0.00;;;;;18.13;86.80;738.34;5001159;27;45315;-75
2022/10/01 05:16:08;;;;;;;;;0.00;0.00;;;;;18.15;87.22;614.88;4997428;27;45604;-75
2022/10/01 05:18:34;;;;;;;;;0.00;0.00;;;;;18.18;86.93;1004.31;4997070;27;45400;-75
2022/10/01 05:21:04;;;;;;;;;0.00;0.00;;;;;18.21;86.85;1030.84;4998634;27;46012;-74
2022/10/01 05:23:30;;;;;;;;;0.00;0.00;;;;;18.22;86.83;1904.41;5002052;27;45385;-75
2022/10/01 05:25:55;;;;;;;;;0.00;0.00;;;;;18.10;86.47;1711.41;5009613;27;45691;-75
2022/10/01 05:28:20;;;;;;;;;0.00;0.00;;;;;18.25;85.97;1915.25;4998051;27;45424;-75
2022/10/01 05:30:46;;;;;;;;;0.00;0.00;;;;;18.21;86.26;2193.78;5003216;27;46152;-75
2022/10/01 05:33:11;;;;;;;;;0.00;0.00;;;;;18.21;86.61;1851.69;4986883;27;46096;-75
2022/10/01 05:35:36;;;;;;;;;0.00;0.00;;;;;18.26;85.86;2017.97;5055083;28;45426;-76
2022/10/01 05:38:02;;;;;;;;;0.00;0.00;;;;;17.86;86.42;386.97;5010562;27;45458;-75
2022/10/01 05:40:29;;;;;;;;;0.00;0.00;;;;;17.72;88.53;-3919.09;4996520;27;46087;-75
2022/10/01 05:42:57;;;;;;;;;0.00;0.00;;;;;17.68;89.48;-5262.88;4995209;27;45387;-75
2022/10/01 05:45:23;;;;;;;;;0.00;0.00;;;;;17.67;89.43;-4926.94;4994612;27;45428;-74
2022/10/01 05:47:55;;;;;;;;;0.00;0.00;;;;;17.57;89.68;-5598.34;5010766;27;45404;-75
2022/10/01 05:50:22;;;;;;;;;0.00;0.00;;;;;17.61;89.99;-5598.47;4992155;27;47417;-79
2022/10/01 05:52:51;;;;;;;;;0.00;0.00;;;;;18.12;88.24;-2140.63;5008006;27;45376;-80
2022/10/01 05:55:17;;;;;;;;;0.00;0.00;;;;;17.81;87.85;-3246.94;4997014;27;45351;-79
2022/10/01 05:57:42;;;;;;;;;0.00;0.00;;;;;17.55;89.36;-5262.47;5000521;27;46090;-79
2022/10/01 06:00:08;;;;;;;;;0.00;0.00;;;;;17.60;89.43;-5598.44;5001165;27;45471;-79
2022/10/01 06:02:33;;;;;;;;;0.00;0.00;;;;;17.68;89.76;-6270.44;4979151;28;45593;-79
2022/10/01 06:04:58;;;;;;;;;0.00;0.00;;;;;18.08;88.90;-3583.22;4994513;27;45370;-79
2022/10/01 06:07:24;;;;;;;;;0.00;0.00;;;;;18.18;87.53;-2158.94;5004061;27;45578;-77
2022/10/01 06:09:49;;;;;;;;;0.00;0.00;;;;;18.23;87.38;-1399.09;4994107;27;46592;-82
2022/10/01 06:12:15;;;;;;;;;0.00;0.00;;;;;18.24;86.50;-602.31;4993329;27;45362;-79
2022/10/01 06:14:41;;;;;;;;;1.00;0.00;;;;;17.75;88.65;-4591.16;4979223;27;46226;-75
2022/10/01 06:17:06;;;;;;;;;1.67;0.00;;;;;17.76;89.17;-5599.03;4981594;27;45769;-75
2022/10/01 06:19:31;;;;;;;;;0.00;0.00;;;;;17.74;89.13;-5598.97;5006651;27;46223;-76
2022/10/01 06:21:57;;;;;;;;;0.00;0.00;;;;;18.06;89.08;-4591.81;4990863;28;45588;-76
2022/10/01 06:24:22;;;;;;;;;0.00;0.00;;;;;18.23;87.08;-1120.41;4978933;27;45358;-76
2022/10/01 06:26:48;;;;;;;;;0.33;0.00;;;;;18.23;85.70;1565.06;4982911;27;45536;-76
2022/10/01 06:29:13;;;;;;;;;1.00;0.00;;;;;18.28;85.59;1589.19;4972910;28;47143;-77
2022/10/01 06:31:39;;;;;;;;;0.00;0.00;;;;;18.29;84.92;2992.09;4987600;27;48861;-77
2022/10/01 06:34:04;;;;;;;;;1.00;0.00;;;;;18.31;84.52;4206.06;4978145;28;45567;-77
2022/10/01 06:36:29;;;;;;;;;0.00;0.00;;;;;18.32;85.21;4277.28;5011719;27;45527;-77
2022/10/01 06:38:55;;;;;;;;;1.00;0.00;;;;;18.33;84.54;4793.59;5018484;27;47105;-76
2022/10/01 06:41:20;;;;;;;;;0.00;0.00;;;;;18.14;84.21;6049.94;5010949;27;45561;-76
2022/10/01 06:43:48;;;;;;;;;2.00;0.00;;;;;18.34;84.14;6218.81;4988791;27;45767;-76
2022/10/01 06:46:13;;;;;;;;;0.00;0.00;;;;;18.33;83.48;7707.69;4998421;27;45690;-77
2022/10/01 06:48:38;;;;;;;;;1.33;0.00;;;;;18.35;83.90;6920.00;4990738;28;45456;-77
2022/10/01 06:51:04;;;;;;;;;0.67;0.00;;;;;18.35;83.69;6698.53;4996339;27;45695;-76
2022/10/01 06:53:31;;;;;;;;;0.00;0.00;;;;;18.35;83.06;6917.34;4996395;27;45604;-76
2022/10/01 06:55:56;;;;;;;;;0.00;0.00;;;;;18.34;82.94;6977.72;5032392;27;45460;-76
2022/10/01 06:58:26;;;;;;;;;0.00;0.00;;;;;18.28;82.80;6987.31;5029558;27;46059;-77
2022/10/01 07:01:00;;;;;;;;;1.33;0.00;;;;;18.30;82.83;6911.16;5020792;27;45470;-76
2022/10/01 07:03:27;;;;;;;;;0.00;0.00;;;;;18.30;82.99;7253.75;4995364;27;45378;-74
2022/10/01 07:05:52;;;;;;;;;0.00;0.00;;;;;18.34;82.12;8335.22;4995068;27;45405;-75
2022/10/01 07:08:18;;;;;;;;;0.00;0.00;;;;;18.41;82.17;8315.38;4999644;27;45424;-75
2022/10/01 07:10:44;;;;;;;;;1.00;0.00;;;;;18.33;81.35;9742.94;5004289;27;45520;-75
2022/10/01 07:13:16;;;;;;;;;0.00;0.00;;;;;18.42;81.59;9974.22;5000319;28;45436;-74
2022/10/01 07:15:42;;;;;;;;;4.67;2.00;;;;;18.38;80.68;10696.09;4999947;27;45463;-77
2022/10/01 07:18:08;;;;;;;;;1.33;1.33;;;;;18.43;81.16;10193.47;4982281;27;46475;-74
2022/10/01 07:20:38;;;;;;;;;1.00;1.00;;;;;18.38;80.39;11273.97;4996824;27;45443;-75
2022/10/01 07:23:05;;;;;;;;;2.00;0.67;;;;;18.49;80.98;11287.03;4993023;27;45469;-78
2022/10/01 07:25:30;;;;;;;;;1.33;1.00;;;;;18.50;80.90;11617.16;5005960;27;45522;-82
2022/10/01 07:28:05;;;;;;;;;3.00;2.00;;;;;18.46;80.33;12104.41;5012344;27;46474;-85
2022/10/01 07:30:32;;;;;;;;;1.33;1.00;;;;;18.41;80.52;12375.00;5001549;27;46952;-78
2022/10/01 07:32:58;;;;;;;;;1.00;1.00;;;;;18.52;80.72;12348.91;4985443;28;45375;-81
2022/10/01 07:35:23;;;;;;;;;1.67;1.00;;;;;18.51;80.93;12111.06;4994446;28;45454;-80
2022/10/01 07:37:50;;;;;;;;;1.33;0.00;;;;;18.51;80.39;12528.16;4979306;27;45410;-77
2022/10/01 07:40:16;;;;;;;;;0.00;0.00;;;;;18.54;80.18;12473.34;4974822;28;45471;-77
2022/10/01 07:42:43;;;;;;;;;3.00;0.00;;;;;18.54;80.48;12191.03;5001541;27;45465;-78
2022/10/01 07:45:09;;;;;;;;;0.33;0.33;;;;;18.54;80.46;12299.13;5000816;28;45466;-78
2022/10/01 07:47:35;;;;;;;;;0.00;0.00;;;;;18.59;80.67;12321.53;4993664;28;47331;-78
2022/10/01 07:50:00;;;;;;;;;0.67;0.00;;;;;18.53;80.83;12441.53;4985674;28;45417;-78
2022/10/01 07:52:25;;;;;;;;;1.00;0.00;;;;;18.61;80.84;12406.38;5024636;27;45423;-74
2022/10/01 07:54:51;;;;;;;;;0.67;0.00;;;;;18.66;80.92;12645.31;4990462;28;45353;-77
2022/10/01 07:57:16;;;;;;;;;0.00;0.00;;;;;18.65;80.20;13120.50;5026274;27;47174;-77
2022/10/01 07:59:42;;;;;;;;;0.00;0.00;;;;;18.70;80.26;13525.78;5013192;27;45495;-78
2022/10/01 08:02:14;;;;;;;;;0.33;0.00;;;;;18.74;80.59;13453.06;5009252;27;45468;-77
2022/10/01 08:07:24;;;;;;;;;0.00;0.00;;;;;18.82;79.77;15352.38;4988309;28;45458;-77
2022/10/01 08:09:49;;;;;;;;;0.00;0.00;;;;;18.87;79.01;15758.34;4983794;27;45352;-75
2022/10/01 08:12:16;;;;;;;;;2.33;0.00;;;;;18.86;79.04;16022.22;4987257;27;45335;-80
2022/10/01 08:14:42;;;;;;;;;0.00;0.00;;;;;18.91;78.08;16833.06;4989711;27;45411;-78
2022/10/01 08:17:07;;;;;;;;;0.33;0.33;;;;;18.88;77.67;17175.88;4985635;27;45533;-77
2022/10/01 08:19:33;;;;;;;;;0.67;0.67;;;;;18.92;78.17;17431.09;5040506;27;45480;-76
2022/10/01 08:21:58;;;;;;;;;3.00;0.00;;;;;18.92;77.85;17610.78;4995879;27;45368;-75
2022/10/01 08:24:24;;;;;;;;;1.00;0.00;;;;;18.92;76.98;17621.53;4995036;27;45535;-76
2022/10/01 08:26:54;;;;;;;;;0.50;0.00;;;;;18.87;77.37;17823.50;5033606;27;45534;-82
2022/10/01 08:29:20;;;;;;;;;1.33;0.00;;;;;18.85;76.36;18499.75;4995999;27;45381;-78
2022/10/01 08:31:45;;;;;;;;;3.00;0.00;;;;;18.94;76.38;18442.13;4998423;27;45489;-75
2022/10/01 08:34:11;;;;;;;;;1.33;0.00;;;;;18.84;76.41;18417.41;5006561;27;45476;-73
2022/10/01 08:36:36;;;;;;;;;1.33;0.00;;;;;18.79;76.81;18780.66;5007340;27;45336;-73
2022/10/01 08:39:02;;;;;;;;;1.67;0.00;;;;;18.97;76.63;18615.16;4991335;28;45492;-73
2022/10/01 08:41:53;;;;;;;;;0.00;0.00;;;;;19.01;76.45;18875.75;4973071;27;45467;-70
2022/10/01 08:44:26;;;;;;;;;3.00;0.00;;;;;19.03;75.76;18770.78;5006629;27;45434;-70
2022/10/01 08:47:00;;;;;;;;;1.33;0.33;;;;;19.03;75.50;17442.59;4996315;27;45433;-70
2022/10/01 08:49:37;;;;;;;;;0.67;0.00;;;;;19.05;75.70;18636.56;4993784;27;45478;-71
2022/10/01 08:52:23;;;;;;;;;1.00;0.33;;;;;19.00;75.97;18412.31;4996507;27;45582;-84
2022/10/01 08:54:57;;;;;;;;;0.00;0.00;;;;;19.11;75.53;17569.69;5007037;27;45417;-89
2022/10/01 08:57:30;;;;;;;;;0.00;0.00;;;;;19.12;75.16;16638.63;4973361;28;46392;-90
2022/10/01 09:00:03;;;;;;;;;1.33;0.00;;;;;19.18;75.60;18130.44;4980107;28;45495;-84
2022/10/01 09:02:31;;;;;;;;;1.00;1.00;;;;;19.22;75.59;17721.44;4974203;28;45597;-77
2022/10/01 09:05:01;;;;;;;;;0.67;0.00;;;;;19.24;75.46;18846.84;5000543;27;45595;-76
2022/10/01 09:07:35;;;;;;;;;1.00;1.00;;;;;19.27;75.67;18302.81;5007379;27;46380;-81
2022/10/01 09:10:19;;;;;;;;;0.00;0.00;;;;;19.30;75.57;18438.88;5008169;27;45390;-84
2022/10/01 09:12:51;;;;;;;;;1.00;1.00;;;;;19.34;76.33;19133.78;5009248;27;45384;-84
2022/10/01 09:15:30;;;;;;;;;1.00;1.00;;;;;19.36;75.88;18935.94;4997852;27;45860;-84
2022/10/01 09:18:05;;;;;;;;;0.67;0.00;;;;;19.40;75.81;18789.09;5000152;27;45994;-91
2022/10/01 09:20:30;;;;;;;;;1.33;0.00;;;;;19.43;75.46;18599.53;4982289;27;45319;-83
2022/10/01 09:23:34;;;;;;;;;3.00;0.00;;;;;19.40;75.44;18095.59;5014781;27;45409;-82
2022/10/01 09:26:00;;;;;;;;;1.67;0.67;;;;;19.42;75.71;19128.78;5012591;28;45555;-82
2022/10/01 09:28:30;;;;;;;;;1.00;1.00;;;;;19.44;75.72;19304.13;5002258;28;47133;-82
2022/10/01 09:31:17;;;;;;;;;0.00;0.00;;;;;19.40;75.85;19845.91;5002326;28;45515;-85
2022/10/01 09:33:54;;;;;;;;;0.00;0.00;;;;;19.37;75.50;19500.31;5003426;28;45348;-83
2022/10/01 09:36:35;;;;;;;;;1.00;0.00;;;;;19.51;74.98;17776.09;5006395;28;45516;-82
2022/10/01 09:39:17;;;;;;;;;3.33;1.00;;;;;19.51;75.21;19272.44;5001544;28;45788;-82
2022/10/01 09:41:45;;;;;;;;;0.00;0.00;;;;;19.52;75.10;17072.25;5000953;28;45461;-81
2022/10/01 09:44:18;;;;;;;;;2.00;0.67;;;;;19.52;74.81;16598.44;5002878;28;45806;-82
2022/10/01 09:46:45;;;;;;;;;3.00;0.00;;;;;19.51;74.46;17514.00;5003703;28;45794;-83
2022/10/01 09:49:26;;;;;;;;;2.67;1.33;;;;;19.54;74.80;16940.53;5013503;28;46288;-82
2022/10/01 09:51:57;;;;;;;;;2.50;1.00;;;;;19.47;73.58;13697.19;5014417;28;45451;-77
2022/10/01 09:54:30;;;;;;;;;1.00;1.00;;;;;19.54;74.08;16215.28;5013950;28;45427;-76
2022/10/01 09:57:13;;;;;;;;;2.00;0.25;;;;;19.51;73.94;14449.50;5010541;28;45510;-76
2022/10/01 09:59:41;;;;;;;;;0.50;0.00;;;;;19.59;73.91;15642.56;4994505;28;47318;-73
2022/10/01 10:02:26;;;;;;;;;1.67;1.00;;;;;19.61;74.22;16585.47;4992853;27;45520;-74
2022/10/01 10:05:02;;;;;;;;;1.00;0.00;;;;;19.58;74.44;16841.44;5001231;27;47201;-73
2022/10/01 10:07:31;;;;;;;;;1.00;1.00;;;;;19.69;74.36;15184.97;5002298;27;45510;-77
2022/10/01 10:10:06;;;;;;;;;1.00;1.00;;;;;19.77;73.83;15078.88;5006155;27;45557;-73
2022/10/01 10:12:33;;;;;;;;;2.00;0.75;;;;;19.77;72.80;6261.78;5004316;27;45401;-73
2022/10/01 10:15:06;;;;;;;;;0.33;0.00;;;;;19.80;72.68;5683.84;5013659;27;45641;-73
2022/10/01 10:17:34;;;;;;;;;3.75;1.00;;;;;19.92;72.94;7347.19;5068355;27;45562;-76
2022/10/01 10:19:59;;;;;;;;;1.67;0.00;;;;;20.00;71.57;-745.03;4991465;27;47176;-76
2022/10/01 10:22:26;;;;;;;;;0.00;0.00;;;;;19.88;71.81;-376.41;5004506;28;45848;-73
2022/10/01 10:24:54;;;;;;;;;2.00;1.00;;;;;20.14;71.83;-2160.59;4972218;28;45474;-73
2022/10/01 10:27:26;;;;;;;;;2.00;2.00;;;;;20.13;70.82;-6532.19;4991298;27;45425;-76
2022/10/01 10:30:07;;;;;;;;;2.00;1.00;;;;;20.12;70.76;-7582.78;4993798;27;45962;-76
2022/10/01 10:32:33;;;;;;;;;2.00;0.00;;;;;20.31;70.66;-7594.59;5045497;27;45496;-75
2022/10/01 10:35:03;;;;;;;;;1.25;0.00;;;;;20.31;70.99;-6567.38;4980019;28;45539;-75
2022/10/01 10:37:33;;;;;;;;;0.00;0.00;;;;;20.40;70.89;-8043.00;4995236;27;45583;-75
2022/10/01 10:39:59;;;;;;;;;1.25;0.50;;;;;20.43;69.26;-17523.78;4991139;27;47089;-78
2022/10/01 10:42:24;;;;;;;;;0.67;0.67;;;;;20.56;69.47;-17429.34;5003907;27;45743;-76
2022/10/01 10:44:53;;;;;;;;;3.00;0.00;;;;;20.55;69.87;-14232.31;4987725;28;45442;-76
2022/10/01 10:47:20;;;;;;;;;1.00;1.00;;;;;20.61;69.68;-16489.50;5005973;27;45513;-77
2022/10/01 10:49:55;;;;;;;;;2.50;1.00;;;;;20.72;69.17;-17714.13;4979591;28;47183;-89
2022/10/01 10:52:35;;;;;;;;;3.67;3.00;;;;;20.76;67.98;-19761.59;4997946;28;45359;-86
2022/10/01 10:55:21;;;;;;;;;2.50;1.00;;;;;20.71;67.62;-19760.28;4997530;27;45452;-86
2022/10/01 10:57:46;;;;;;;;;4.00;4.00;;;;;20.86;66.52;-19764.13;4978447;28;45583;-87
2022/10/01 11:00:15;;;;;;;;;0.00;0.00;;;;;20.93;65.92;-19766.00;5025343;27;46201;-87
2022/10/01 11:02:50;;;;;;;;;1.00;0.50;;;;;20.84;65.15;-19763.75;4997607;27;45509;-87
2022/10/01 11:05:19;;;;;;;;;2.67;1.00;;;;;20.80;65.79;-19762.53;4994457;28;45385;-89
2022/10/01 11:07:47;;;;;;;;;2.00;2.00;;;;;20.97;64.89;-19766.94;4973516;28;45730;-81
2022/10/01 11:10:27;;;;;;;;;2.00;2.00;;;;;20.98;65.68;-19767.34;5037693;27;45474;-82
2022/10/01 11:13:01;;;;;;;;;1.75;0.50;;;;;21.01;64.84;-19768.00;5020073;28;45400;-81
2022/10/01 11:16:00;;;;;;;;;1.00;1.00;;;;;20.95;64.20;-19766.53;4970517;28;45553;-79
2022/10/01 11:18:42;;;;;;;;;1.00;0.00;;;;;21.00;63.69;-19767.75;4959996;28;45425;-79
2022/10/01 11:21:23;;;;;;;;;4.67;3.00;;;;;20.96;63.63;-19766.81;4985829;28;45386;-76
2022/10/01 11:23:55;;;;;;;;;6.33;5.33;;;;;21.00;64.22;-19767.88;4984364;28;45391;-75
2022/10/01 11:26:25;;;;;;;;;1.00;1.00;;;;;21.03;63.73;-19768.53;4983701;28;45472;-81
2022/10/01 11:28:54;;;;;;;;;5.67;2.67;;;;;21.04;63.50;-19768.94;5060778;27;45586;-77
2022/10/01 11:31:25;;;;;;;;;4.00;1.00;;;;;21.07;63.44;-19769.59;4986138;28;45248;-76
2022/10/01 11:34:03;;;;;;;;;2.33;1.00;;;;;21.12;63.47;-19770.81;5069216;27;45881;-76
2022/10/01 11:36:49;;;;;;;;;3.67;1.00;;;;;21.08;62.95;-19769.88;4984660;28;45329;-78
2022/10/01 11:39:18;;;;;;;;;5.00;3.33;;;;;21.19;63.11;-19772.81;4991239;28;45418;-79
2022/10/01 11:41:49;;;;;;;;;3.00;2.00;;;;;21.33;63.13;-19776.41;4973900;28;47119;-78
2022/10/01 11:44:34;;;;;;;;;0.00;0.00;;;;;21.41;61.51;-19778.41;4988631;28;45431;-79
2022/10/01 11:47:06;;;;;;;;;1.00;1.00;;;;;21.96;60.82;-19792.63;4986193;28;45724;-76
2022/10/01 11:49:56;;;;;;;;;2.50;0.25;;;;;22.77;59.60;-19813.91;4982305;28;45346;-79
2022/10/01 11:52:31;;;;;;;;;4.00;0.00;;;;;23.48;57.65;-19832.09;4999639;27;45397;-77